sensor_id;sensor_type;location;lat;lon;timestamp;P1;durP1;ratioP1;P2;durP2;ratioP2
15982;SDS011;14442;50.196;8.096;2022-10-31T00:01:10;2.30;;;1.70;;
15982;SDS011;14442;50.196;8.096;2022-10-31T00:03:37;2.47;;;1.40;;
15982;SDS011;14442;50.196;8.096;2022-10-31T00:06:05;5.83;;;1.43;;
15982;SDS011;14442;50.196;8.096;2022-10-31T00:08:32;3.43;;;1.50;;
15982;SDS011;14442;50.196;8.096;2022-10-31T00:10:59;4.00;;;1.60;;
15982;SDS011;14442;50.196;8.096;2022-10-31T00:13:25;1.60;;;1.50;;
15982;SDS011;14442;50.196;8.096;2022-10-31T00:15:52;3.53;;;1.90;;
15982;SDS011;14442;50.196;8.096;2022-10-31T00:18:19;2.13;;;1.20;;
15982;SDS011;14442;50.196;8.096;2022-10-31T00:20:45;1.40;;;1.13;;
15982;SDS011;14442;50.196;8.096;2022-10-31T00:23:13;4.10;;;1.70;;
15982;SDS011;14442;50.196;8.096;2022-10-31T00:25:40;3.03;;;1.70;;
15982;SDS011;14442;50.196;8.096;2022-10-31T00:28:08;1.93;;;1.40;;
15982;SDS011;14442;50.196;8.096;2022-10-31T00:30:37;2.93;;;1.50;;
15982;SDS011;14442;50.196;8.096;2022-10-31T00:33:04;4.60;;;1.50;;
15982;SDS011;14442;50.196;8.096;2022-10-31T00:35:30;2.30;;;1.20;;
15982;SDS011;14442;50.196;8.096;2022-10-31T00:37:57;2.77;;;1.60;;
15982;SDS011;14442;50.196;8.096;2022-10-31T00:40:25;2.07;;;1.20;;
15982;SDS011;14442;50.196;8.096;2022-10-31T00:42:52;2.37;;;1.47;;
15982;SDS011;14442;50.196;8.096;2022-10-31T00:45:19;3.67;;;1.30;;
15982;SDS011;14442;50.196;8.096;2022-10-31T00:47:45;2.73;;;1.40;;
15982;SDS011;14442;50.196;8.096;2022-10-31T00:50:12;3.07;;;1.40;;
15982;SDS011;14442;50.196;8.096;2022-10-31T00:52:38;1.93;;;1.20;;
15982;SDS011;14442;50.196;8.096;2022-10-31T00:55:05;2.60;;;1.40;;
15982;SDS011;14442;50.196;8.096;2022-10-31T00:57:34;1.63;;;1.17;;
15982;SDS011;14442;50.196;8.096;2022-10-31T01:00:00;3.97;;;1.30;;
15982;SDS011;14442;50.196;8.096;2022-10-31T01:02:27;4.03;;;1.47;;
15982;SDS011;14442;50.196;8.096;2022-10-31T01:04:54;1.57;;;1.47;;
15982;SDS011;14442;50.196;8.096;2022-10-31T01:07:20;4.23;;;1.37;;
15982;SDS011;14442;50.196;8.096;2022-10-31T01:09:47;3.00;;;1.53;;
15982;SDS011;14442;50.196;8.096;2022-10-31T01:12:14;1.93;;;1.40;;
15982;SDS011;14442;50.196;8.096;2022-10-31T01:14:43;1.30;;;1.20;;
15982;SDS011;14442;50.196;8.096;2022-10-31T01:17:10;1.30;;;1.20;;
15982;SDS011;14442;50.196;8.096;2022-10-31T01:19:37;1.40;;;1.20;;
15982;SDS011;14442;50.196;8.096;2022-10-31T01:22:04;3.10;;;1.13;;
15982;SDS011;14442;50.196;8.096;2022-10-31T01:24:30;2.20;;;1.23;;
15982;SDS011;14442;50.196;8.096;2022-10-31T01:26:57;1.23;;;1.10;;
15982;SDS011;14442;50.196;8.096;2022-10-31T01:29:24;2.10;;;1.33;;
15982;SDS011;14442;50.196;8.096;2022-10-31T01:31:52;2.77;;;1.30;;
15982;SDS011;14442;50.196;8.096;2022-10-31T01:34:18;2.03;;;1.20;;
15982;SDS011;14442;50.196;8.096;2022-10-31T01:36:45;2.00;;;1.30;;
15982;SDS011;14442;50.196;8.096;2022-10-31T01:39:16;1.03;;;0.80;;
15982;SDS011;14442;50.196;8.096;2022-10-31T01:41:44;2.27;;;1.27;;
15982;SDS011;14442;50.196;8.096;2022-10-31T01:47:14;1.37;;;1.10;;
15982;SDS011;14442;50.196;8.096;2022-10-31T01:49:45;1.50;;;1.10;;
15982;SDS011;14442;50.196;8.096;2022-10-31T01:52:16;1.73;;;1.20;;
15982;SDS011;14442;50.196;8.096;2022-10-31T01:54:50;2.60;;;1.13;;
15982;SDS011;14442;50.196;8.096;2022-10-31T01:57:19;1.30;;;1.10;;
15982;SDS011;14442;50.196;8.096;2022-10-31T01:59:48;2.00;;;1.07;;
15982;SDS011;14442;50.196;8.096;2022-10-31T02:02:19;2.93;;;1.07;;
15982;SDS011;14442;50.196;8.096;2022-10-31T02:04:46;2.13;;;1.30;;
15982;SDS011;14442;50.196;8.096;2022-10-31T02:07:14;1.10;;;1.00;;
15982;SDS011;14442;50.196;8.096;2022-10-31T02:09:46;1.17;;;1.10;;
15982;SDS011;14442;50.196;8.096;2022-10-31T02:12:15;1.97;;;1.30;;
15982;SDS011;14442;50.196;8.096;2022-10-31T02:14:43;1.00;;;1.00;;
15982;SDS011;14442;50.196;8.096;2022-10-31T02:17:10;1.43;;;1.20;;
15982;SDS011;14442;50.196;8.096;2022-10-31T02:19:40;0.97;;;0.97;;
15982;SDS011;14442;50.196;8.096;2022-10-31T02:22:13;1.20;;;0.97;;
15982;SDS011;14442;50.196;8.096;2022-10-31T02:24:49;1.83;;;0.90;;
15982;SDS011;14442;50.196;8.096;2022-10-31T02:27:33;1.20;;;1.10;;
15982;SDS011;14442;50.196;8.096;2022-10-31T02:30:21;1.50;;;1.10;;
15982;SDS011;14442;50.196;8.096;2022-10-31T02:32:59;1.20;;;1.13;;
15982;SDS011;14442;50.196;8.096;2022-10-31T02:35:44;1.67;;;1.00;;
15982;SDS011;14442;50.196;8.096;2022-10-31T02:38:21;2.67;;;1.37;;
15982;SDS011;14442;50.196;8.096;2022-10-31T02:40:56;1.23;;;1.00;;
15982;SDS011;14442;50.196;8.096;2022-10-31T02:43:31;1.57;;;1.07;;
15982;SDS011;14442;50.196;8.096;2022-10-31T02:46:04;2.10;;;1.53;;
15982;SDS011;14442;50.196;8.096;2022-10-31T02:48:38;0.90;;;0.90;;
15982;SDS011;14442;50.196;8.096;2022-10-31T02:51:07;0.97;;;0.97;;
15982;SDS011;14442;50.196;8.096;2022-10-31T02:53:36;0.77;;;0.77;;
15982;SDS011;14442;50.196;8.096;2022-10-31T02:56:04;0.90;;;0.90;;
15982;SDS011;14442;50.196;8.096;2022-10-31T02:58:33;0.90;;;0.90;;
15982;SDS011;14442;50.196;8.096;2022-10-31T03:01:09;1.63;;;0.80;;
15982;SDS011;14442;50.196;8.096;2022-10-31T03:04:04;1.13;;;1.03;;
15982;SDS011;14442;50.196;8.096;2022-10-31T03:06:51;1.80;;;1.10;;
15982;SDS011;14442;50.196;8.096;2022-10-31T03:09:23;2.10;;;0.93;;
15982;SDS011;14442;50.196;8.096;2022-10-31T03:11:54;2.47;;;1.10;;
15982;SDS011;14442;50.196;8.096;2022-10-31T03:14:26;1.13;;;1.03;;
15982;SDS011;14442;50.196;8.096;2022-10-31T03:17:05;0.90;;;0.90;;
15982;SDS011;14442;50.196;8.096;2022-10-31T03:19:36;1.10;;;1.00;;
15982;SDS011;14442;50.196;8.096;2022-10-31T03:22:07;1.47;;;1.00;;
15982;SDS011;14442;50.196;8.096;2022-10-31T03:24:41;1.43;;;1.33;;
15982;SDS011;14442;50.196;8.096;2022-10-31T03:27:09;0.77;;;0.77;;
15982;SDS011;14442;50.196;8.096;2022-10-31T03:29:38;0.80;;;0.80;;
15982;SDS011;14442;50.196;8.096;2022-10-31T03:32:08;1.00;;;1.00;;
15982;SDS011;14442;50.196;8.096;2022-10-31T03:34:41;1.17;;;1.17;;
15982;SDS011;14442;50.196;8.096;2022-10-31T03:37:10;2.10;;;0.90;;
15982;SDS011;14442;50.196;8.096;2022-10-31T03:39:40;1.80;;;1.20;;
15982;SDS011;14442;50.196;8.096;2022-10-31T03:42:09;1.27;;;1.10;;
15982;SDS011;14442;50.196;8.096;2022-10-31T03:44:40;1.23;;;0.70;;
15982;SDS011;14442;50.196;8.096;2022-10-31T03:47:10;1.10;;;1.00;;
15982;SDS011;14442;50.196;8.096;2022-10-31T03:49:36;1.40;;;1.20;;
15982;SDS011;14442;50.196;8.096;2022-10-31T03:52:07;4.03;;;1.03;;
15982;SDS011;14442;50.196;8.096;2022-10-31T03:54:40;0.77;;;0.77;;
15982;SDS011;14442;50.196;8.096;2022-10-31T03:57:10;0.77;;;0.77;;
15982;SDS011;14442;50.196;8.096;2022-10-31T03:59:46;1.40;;;1.03;;
15982;SDS011;14442;50.196;8.096;2022-10-31T04:02:17;0.90;;;0.87;;
15982;SDS011;14442;50.196;8.096;2022-10-31T04:04:47;1.00;;;0.70;;
15982;SDS011;14442;50.196;8.096;2022-10-31T04:07:16;0.67;;;0.67;;
15982;SDS011;14442;50.196;8.096;2022-10-31T04:09:45;0.97;;;0.87;;
15982;SDS011;14442;50.196;8.096;2022-10-31T04:12:14;1.00;;;1.00;;
15982;SDS011;14442;50.196;8.096;2022-10-31T04:14:42;0.87;;;0.70;;
15982;SDS011;14442;50.196;8.096;2022-10-31T04:17:12;1.40;;;1.30;;
15982;SDS011;14442;50.196;8.096;2022-10-31T04:19:41;1.73;;;1.00;;
15982;SDS011;14442;50.196;8.096;2022-10-31T04:22:08;1.03;;;1.03;;
15982;SDS011;14442;50.196;8.096;2022-10-31T04:24:36;0.93;;;0.93;;
15982;SDS011;14442;50.196;8.096;2022-10-31T04:27:06;1.00;;;0.87;;
15982;SDS011;14442;50.196;8.096;2022-10-31T04:29:32;1.47;;;0.73;;
15982;SDS011;14442;50.196;8.096;2022-10-31T04:31:59;0.97;;;0.90;;
15982;SDS011;14442;50.196;8.096;2022-10-31T04:34:26;1.23;;;1.13;;
15982;SDS011;14442;50.196;8.096;2022-10-31T04:36:52;0.90;;;0.90;;
15982;SDS011;14442;50.196;8.096;2022-10-31T04:39:19;1.20;;;1.10;;
15982;SDS011;14442;50.196;8.096;2022-10-31T04:41:47;0.70;;;0.70;;
15982;SDS011;14442;50.196;8.096;2022-10-31T04:44:14;1.27;;;0.73;;
15982;SDS011;14442;50.196;8.096;2022-10-31T04:46:41;0.80;;;0.80;;
15982;SDS011;14442;50.196;8.096;2022-10-31T04:49:07;1.30;;;1.30;;
15982;SDS011;14442;50.196;8.096;2022-10-31T04:51:34;0.83;;;0.83;;
15982;SDS011;14442;50.196;8.096;2022-10-31T04:54:01;1.27;;;1.10;;
15982;SDS011;14442;50.196;8.096;2022-10-31T04:56:28;0.70;;;0.70;;
15982;SDS011;14442;50.196;8.096;2022-10-31T04:58:56;0.80;;;0.80;;
15982;SDS011;14442;50.196;8.096;2022-10-31T05:01:23;0.80;;;0.80;;
15982;SDS011;14442;50.196;8.096;2022-10-31T05:03:49;0.87;;;0.80;;
15982;SDS011;14442;50.196;8.096;2022-10-31T05:06:16;2.73;;;0.90;;
15982;SDS011;14442;50.196;8.096;2022-10-31T05:08:43;0.83;;;0.60;;
15982;SDS011;14442;50.196;8.096;2022-10-31T05:11:09;0.97;;;0.97;;
15982;SDS011;14442;50.196;8.096;2022-10-31T05:13:36;0.80;;;0.80;;
15982;SDS011;14442;50.196;8.096;2022-10-31T05:16:04;1.03;;;0.90;;
15982;SDS011;14442;50.196;8.096;2022-10-31T05:18:31;1.43;;;1.10;;
15982;SDS011;14442;50.196;8.096;2022-10-31T05:20:58;2.00;;;1.00;;
15982;SDS011;14442;50.196;8.096;2022-10-31T05:23:24;1.20;;;1.10;;
15982;SDS011;14442;50.196;8.096;2022-10-31T05:25:51;1.43;;;0.80;;
15982;SDS011;14442;50.196;8.096;2022-10-31T05:28:18;0.70;;;0.70;;
15982;SDS011;14442;50.196;8.096;2022-10-31T05:30:44;1.20;;;1.00;;
15982;SDS011;14442;50.196;8.096;2022-10-31T05:33:12;1.10;;;0.83;;
15982;SDS011;14442;50.196;8.096;2022-10-31T05:35:39;1.17;;;1.10;;
15982;SDS011;14442;50.196;8.096;2022-10-31T05:38:05;1.13;;;1.03;;
15982;SDS011;14442;50.196;8.096;2022-10-31T05:40:32;1.10;;;1.00;;
15982;SDS011;14442;50.196;8.096;2022-10-31T05:42:59;0.80;;;0.80;;
15982;SDS011;14442;50.196;8.096;2022-10-31T05:45:26;1.27;;;0.90;;
15982;SDS011;14442;50.196;8.096;2022-10-31T05:47:52;1.20;;;1.20;;
15982;SDS011;14442;50.196;8.096;2022-10-31T05:50:22;2.70;;;0.80;;
15982;SDS011;14442;50.196;8.096;2022-10-31T05:52:53;0.87;;;0.87;;
15982;SDS011;14442;50.196;8.096;2022-10-31T05:55:21;0.77;;;0.77;;
15982;SDS011;14442;50.196;8.096;2022-10-31T05:57:47;2.23;;;1.13;;
15982;SDS011;14442;50.196;8.096;2022-10-31T06:00:14;1.00;;;0.90;;
15982;SDS011;14442;50.196;8.096;2022-10-31T06:02:41;1.10;;;1.00;;
15982;SDS011;14442;50.196;8.096;2022-10-31T06:05:08;2.33;;;0.80;;
15982;SDS011;14442;50.196;8.096;2022-10-31T06:07:36;0.90;;;0.90;;
15982;SDS011;14442;50.196;8.096;2022-10-31T06:10:03;0.90;;;0.90;;
15982;SDS011;14442;50.196;8.096;2022-10-31T06:12:31;0.80;;;0.80;;
15982;SDS011;14442;50.196;8.096;2022-10-31T06:15:02;0.60;;;0.50;;
15982;SDS011;14442;50.196;8.096;2022-10-31T06:17:30;1.73;;;0.90;;
15982;SDS011;14442;50.196;8.096;2022-10-31T06:19:57;1.13;;;1.10;;
15982;SDS011;14442;50.196;8.096;2022-10-31T06:22:23;1.40;;;0.77;;
15982;SDS011;14442;50.196;8.096;2022-10-31T06:24:51;0.60;;;0.60;;
15982;SDS011;14442;50.196;8.096;2022-10-31T06:27:18;0.67;;;0.50;;
15982;SDS011;14442;50.196;8.096;2022-10-31T06:29:45;0.90;;;0.90;;
15982;SDS011;14442;50.196;8.096;2022-10-31T06:32:12;1.10;;;0.97;;
15982;SDS011;14442;50.196;8.096;2022-10-31T06:34:39;0.90;;;0.90;;
15982;SDS011;14442;50.196;8.096;2022-10-31T06:37:05;1.17;;;0.80;;
15982;SDS011;14442;50.196;8.096;2022-10-31T06:39:32;1.30;;;0.83;;
15982;SDS011;14442;50.196;8.096;2022-10-31T06:42:00;1.07;;;0.70;;
15982;SDS011;14442;50.196;8.096;2022-10-31T06:44:27;1.00;;;0.90;;
15982;SDS011;14442;50.196;8.096;2022-10-31T06:46:54;1.00;;;0.70;;
15982;SDS011;14442;50.196;8.096;2022-10-31T06:49:21;0.87;;;0.83;;
15982;SDS011;14442;50.196;8.096;2022-10-31T06:51:48;3.13;;;0.90;;
15982;SDS011;14442;50.196;8.096;2022-10-31T06:54:15;0.80;;;0.80;;
15982;SDS011;14442;50.196;8.096;2022-10-31T06:56:42;1.23;;;0.90;;
15982;SDS011;14442;50.196;8.096;2022-10-31T06:59:12;0.70;;;0.70;;
15982;SDS011;14442;50.196;8.096;2022-10-31T07:01:39;1.30;;;1.20;;
15982;SDS011;14442;50.196;8.096;2022-10-31T07:04:07;1.07;;;0.93;;
15982;SDS011;14442;50.196;8.096;2022-10-31T07:06:34;1.33;;;0.87;;
15982;SDS011;14442;50.196;8.096;2022-10-31T07:09:00;1.13;;;1.03;;
15982;SDS011;14442;50.196;8.096;2022-10-31T07:11:27;1.20;;;0.90;;
15982;SDS011;14442;50.196;8.096;2022-10-31T07:13:54;0.97;;;0.77;;
15982;SDS011;14442;50.196;8.096;2022-10-31T07:16:22;0.83;;;0.80;;
15982;SDS011;14442;50.196;8.096;2022-10-31T07:18:48;0.70;;;0.70;;
15982;SDS011;14442;50.196;8.096;2022-10-31T07:21:16;1.83;;;0.80;;
15982;SDS011;14442;50.196;8.096;2022-10-31T07:23:42;1.20;;;1.10;;
15982;SDS011;14442;50.196;8.096;2022-10-31T07:26:09;0.90;;;0.90;;
15982;SDS011;14442;50.196;8.096;2022-10-31T07:28:36;0.87;;;0.70;;
15982;SDS011;14442;50.196;8.096;2022-10-31T07:31:03;1.37;;;1.10;;
15982;SDS011;14442;50.196;8.096;2022-10-31T07:33:31;1.17;;;1.00;;
15982;SDS011;14442;50.196;8.096;2022-10-31T07:35:57;1.03;;;0.90;;
15982;SDS011;14442;50.196;8.096;2022-10-31T07:38:24;1.07;;;0.93;;
15982;SDS011;14442;50.196;8.096;2022-10-31T07:40:51;0.80;;;0.80;;
15982;SDS011;14442;50.196;8.096;2022-10-31T07:43:18;0.90;;;0.90;;
15982;SDS011;14442;50.196;8.096;2022-10-31T07:45:48;1.10;;;0.77;;
15982;SDS011;14442;50.196;8.096;2022-10-31T07:48:15;1.20;;;0.90;;
15982;SDS011;14442;50.196;8.096;2022-10-31T07:50:43;1.80;;;0.90;;
15982;SDS011;14442;50.196;8.096;2022-10-31T07:53:11;1.23;;;0.97;;
15982;SDS011;14442;50.196;8.096;2022-10-31T07:55:38;1.70;;;0.80;;
15982;SDS011;14442;50.196;8.096;2022-10-31T07:58:06;1.73;;;1.10;;
15982;SDS011;14442;50.196;8.096;2022-10-31T08:00:34;1.53;;;1.03;;
15982;SDS011;14442;50.196;8.096;2022-10-31T08:03:02;1.80;;;0.87;;
15982;SDS011;14442;50.196;8.096;2022-10-31T08:05:31;1.23;;;0.73;;
15982;SDS011;14442;50.196;8.096;2022-10-31T08:07:59;1.13;;;1.03;;
15982;SDS011;14442;50.196;8.096;2022-10-31T08:10:26;0.90;;;0.50;;
15982;SDS011;14442;50.196;8.096;2022-10-31T08:12:57;2.00;;;0.80;;
15982;SDS011;14442;50.196;8.096;2022-10-31T08:15:24;1.37;;;0.70;;
15982;SDS011;14442;50.196;8.096;2022-10-31T08:17:52;1.40;;;0.77;;
15982;SDS011;14442;50.196;8.096;2022-10-31T08:20:19;0.90;;;0.90;;
15982;SDS011;14442;50.196;8.096;2022-10-31T08:22:52;0.80;;;0.80;;
15982;SDS011;14442;50.196;8.096;2022-10-31T08:25:21;0.70;;;0.70;;
15982;SDS011;14442;50.196;8.096;2022-10-31T08:27:49;1.97;;;1.00;;
15982;SDS011;14442;50.196;8.096;2022-10-31T08:30:16;1.90;;;0.73;;
15982;SDS011;14442;50.196;8.096;2022-10-31T08:32:43;1.40;;;1.20;;
15982;SDS011;14442;50.196;8.096;2022-10-31T08:35:10;0.80;;;0.80;;
15982;SDS011;14442;50.196;8.096;2022-10-31T08:37:37;1.13;;;1.03;;
15982;SDS011;14442;50.196;8.096;2022-10-31T08:40:04;0.80;;;0.80;;
15982;SDS011;14442;50.196;8.096;2022-10-31T08:42:33;0.97;;;0.90;;
15982;SDS011;14442;50.196;8.096;2022-10-31T08:45:00;4.50;;;1.00;;
15982;SDS011;14442;50.196;8.096;2022-10-31T08:47:26;1.00;;;0.83;;
15982;SDS011;14442;50.196;8.096;2022-10-31T08:49:53;1.37;;;1.20;;
15982;SDS011;14442;50.196;8.096;2022-10-31T08:52:22;1.40;;;1.30;;
15982;SDS011;14442;50.196;8.096;2022-10-31T08:54:49;3.47;;;1.00;;
15982;SDS011;14442;50.196;8.096;2022-10-31T08:57:15;2.07;;;1.50;;
15982;SDS011;14442;50.196;8.096;2022-10-31T08:59:43;3.10;;;1.37;;
15982;SDS011;14442;50.196;8.096;2022-10-31T09:02:10;3.10;;;1.60;;
15982;SDS011;14442;50.196;8.096;2022-10-31T09:04:37;3.00;;;1.43;;
15982;SDS011;14442;50.196;8.096;2022-10-31T09:07:03;7.77;;;2.33;;
15982;SDS011;14442;50.196;8.096;2022-10-31T09:09:30;7.47;;;1.83;;
15982;SDS011;14442;50.196;8.096;2022-10-31T09:11:57;4.23;;;2.00;;
15982;SDS011;14442;50.196;8.096;2022-10-31T09:14:23;6.43;;;2.77;;
15982;SDS011;14442;50.196;8.096;2022-10-31T09:16:52;6.83;;;2.10;;
15982;SDS011;14442;50.196;8.096;2022-10-31T09:19:18;7.57;;;1.93;;
15982;SDS011;14442;50.196;8.096;2022-10-31T09:21:45;4.70;;;2.10;;
15982;SDS011;14442;50.196;8.096;2022-10-31T09:24:12;4.83;;;2.33;;
15982;SDS011;14442;50.196;8.096;2022-10-31T09:26:38;4.10;;;1.80;;
15982;SDS011;14442;50.196;8.096;2022-10-31T09:29:05;1.87;;;1.60;;
15982;SDS011;14442;50.196;8.096;2022-10-31T09:31:34;4.90;;;1.80;;
15982;SDS011;14442;50.196;8.096;2022-10-31T09:34:02;5.40;;;1.90;;
15982;SDS011;14442;50.196;8.096;2022-10-31T09:36:29;4.70;;;1.70;;
15982;SDS011;14442;50.196;8.096;2022-10-31T09:38:56;6.97;;;2.03;;
15982;SDS011;14442;50.196;8.096;2022-10-31T09:41:24;5.07;;;2.10;;
15982;SDS011;14442;50.196;8.096;2022-10-31T09:43:59;5.33;;;2.10;;
15982;SDS011;14442;50.196;8.096;2022-10-31T09:46:35;4.30;;;1.70;;
15982;SDS011;14442;50.196;8.096;2022-10-31T09:49:28;7.43;;;2.30;;
15982;SDS011;14442;50.196;8.096;2022-10-31T09:52:10;7.43;;;2.50;;
15982;SDS011;14442;50.196;8.096;2022-10-31T09:54:43;5.20;;;1.93;;
15982;SDS011;14442;50.196;8.096;2022-10-31T09:57:14;7.40;;;2.17;;
15982;SDS011;14442;50.196;8.096;2022-10-31T09:59:44;5.77;;;2.60;;
15982;SDS011;14442;50.196;8.096;2022-10-31T10:02:14;5.60;;;2.40;;
15982;SDS011;14442;50.196;8.096;2022-10-31T10:04:49;10.97;;;3.03;;
15982;SDS011;14442;50.196;8.096;2022-10-31T10:07:22;9.77;;;2.40;;
15982;SDS011;14442;50.196;8.096;2022-10-31T10:09:56;13.57;;;3.07;;
15982;SDS011;14442;50.196;8.096;2022-10-31T10:12:26;6.67;;;2.30;;
15982;SDS011;14442;50.196;8.096;2022-10-31T10:15:13;6.47;;;2.50;;
15982;SDS011;14442;50.196;8.096;2022-10-31T10:18:02;7.90;;;2.13;;
15982;SDS011;14442;50.196;8.096;2022-10-31T10:20:37;4.87;;;1.60;;
15982;SDS011;14442;50.196;8.096;2022-10-31T10:23:19;5.40;;;2.17;;
15982;SDS011;14442;50.196;8.096;2022-10-31T10:26:01;4.53;;;2.50;;
15982;SDS011;14442;50.196;8.096;2022-10-31T10:28:32;4.93;;;1.90;;
15982;SDS011;14442;50.196;8.096;2022-10-31T10:31:03;6.53;;;1.90;;
15982;SDS011;14442;50.196;8.096;2022-10-31T10:33:35;6.83;;;2.13;;
15982;SDS011;14442;50.196;8.096;2022-10-31T10:36:08;6.87;;;2.00;;
15982;SDS011;14442;50.196;8.096;2022-10-31T10:38:51;10.27;;;2.57;;
15982;SDS011;14442;50.196;8.096;2022-10-31T10:41:22;10.90;;;2.53;;
15982;SDS011;14442;50.196;8.096;2022-10-31T10:43:51;6.23;;;2.23;;
15982;SDS011;14442;50.196;8.096;2022-10-31T10:46:19;11.20;;;2.03;;
15982;SDS011;14442;50.196;8.096;2022-10-31T10:49:11;12.77;;;2.50;;
15982;SDS011;14442;50.196;8.096;2022-10-31T10:51:44;9.47;;;2.53;;
15982;SDS011;14442;50.196;8.096;2022-10-31T10:57:11;10.53;;;2.33;;
15982;SDS011;14442;50.196;8.096;2022-10-31T10:59:46;8.97;;;2.40;;
15982;SDS011;14442;50.196;8.096;2022-10-31T11:02:15;5.37;;;2.03;;
15982;SDS011;14442;50.196;8.096;2022-10-31T11:04:43;6.53;;;2.27;;
15982;SDS011;14442;50.196;8.096;2022-10-31T11:07:14;4.83;;;2.17;;
15982;SDS011;14442;50.196;8.096;2022-10-31T11:09:41;6.87;;;1.80;;
15982;SDS011;14442;50.196;8.096;2022-10-31T11:12:09;8.87;;;2.03;;
15982;SDS011;14442;50.196;8.096;2022-10-31T11:14:42;9.13;;;1.77;;
15982;SDS011;14442;50.196;8.096;2022-10-31T11:17:16;3.40;;;1.60;;
15982;SDS011;14442;50.196;8.096;2022-10-31T11:19:48;7.27;;;1.70;;
15982;SDS011;14442;50.196;8.096;2022-10-31T11:22:33;7.27;;;1.60;;
15982;SDS011;14442;50.196;8.096;2022-10-31T11:25:00;5.50;;;1.80;;
15982;SDS011;14442;50.196;8.096;2022-10-31T11:27:27;4.80;;;1.60;;
15982;SDS011;14442;50.196;8.096;2022-10-31T11:30:03;6.33;;;1.77;;
15982;SDS011;14442;50.196;8.096;2022-10-31T11:32:31;4.03;;;1.63;;
15982;SDS011;14442;50.196;8.096;2022-10-31T11:34:59;4.93;;;1.83;;
15982;SDS011;14442;50.196;8.096;2022-10-31T11:37:28;4.63;;;1.97;;
15982;SDS011;14442;50.196;8.096;2022-10-31T11:40:02;4.83;;;1.73;;
15982;SDS011;14442;50.196;8.096;2022-10-31T11:42:35;3.97;;;1.90;;
15982;SDS011;14442;50.196;8.096;2022-10-31T11:45:06;6.23;;;1.60;;
15982;SDS011;14442;50.196;8.096;2022-10-31T11:47:41;3.83;;;1.63;;
15982;SDS011;14442;50.196;8.096;2022-10-31T11:50:10;4.73;;;1.80;;
15982;SDS011;14442;50.196;8.096;2022-10-31T11:52:44;4.53;;;2.07;;
15982;SDS011;14442;50.196;8.096;2022-10-31T11:55:16;4.20;;;2.07;;
15982;SDS011;14442;50.196;8.096;2022-10-31T11:57:55;2.30;;;1.50;;
15982;SDS011;14442;50.196;8.096;2022-10-31T12:00:23;1.43;;;1.33;;
15982;SDS011;14442;50.196;8.096;2022-10-31T12:02:51;2.93;;;1.43;;
15982;SDS011;14442;50.196;8.096;2022-10-31T12:05:36;1.97;;;1.30;;
15982;SDS011;14442;50.196;8.096;2022-10-31T12:08:06;1.43;;;1.30;;
15982;SDS011;14442;50.196;8.096;2022-10-31T12:10:35;10.83;;;1.60;;
15982;SDS011;14442;50.196;8.096;2022-10-31T12:13:13;1.40;;;1.17;;
15982;SDS011;14442;50.196;8.096;2022-10-31T12:15:54;3.53;;;1.67;;
15982;SDS011;14442;50.196;8.096;2022-10-31T12:18:28;2.03;;;1.57;;
15982;SDS011;14442;50.196;8.096;2022-10-31T12:21:07;2.23;;;1.20;;
15982;SDS011;14442;50.196;8.096;2022-10-31T12:23:47;4.07;;;1.53;;
15982;SDS011;14442;50.196;8.096;2022-10-31T12:26:29;2.80;;;1.80;;
15982;SDS011;14442;50.196;8.096;2022-10-31T12:29:03;2.20;;;1.30;;
15982;SDS011;14442;50.196;8.096;2022-10-31T12:31:42;1.57;;;1.20;;
15982;SDS011;14442;50.196;8.096;2022-10-31T12:34:25;3.07;;;1.30;;
15982;SDS011;14442;50.196;8.096;2022-10-31T12:37:03;2.70;;;1.30;;
15982;SDS011;14442;50.196;8.096;2022-10-31T12:39:40;2.53;;;1.40;;
15982;SDS011;14442;50.196;8.096;2022-10-31T12:42:14;1.73;;;1.17;;
15982;SDS011;14442;50.196;8.096;2022-10-31T12:47:52;3.10;;;1.80;;
15982;SDS011;14442;50.196;8.096;2022-10-31T12:50:33;2.43;;;1.47;;
15982;SDS011;14442;50.196;8.096;2022-10-31T12:53:15;3.90;;;1.77;;
15982;SDS011;14442;50.196;8.096;2022-10-31T12:55:54;2.53;;;1.50;;
15982;SDS011;14442;50.196;8.096;2022-10-31T12:58:32;2.03;;;1.43;;
15982;SDS011;14442;50.196;8.096;2022-10-31T13:01:05;5.00;;;1.53;;
15982;SDS011;14442;50.196;8.096;2022-10-31T13:03:39;3.37;;;1.50;;
15982;SDS011;14442;50.196;8.096;2022-10-31T13:06:14;2.20;;;1.23;;
15982;SDS011;14442;50.196;8.096;2022-10-31T13:08:45;2.97;;;1.60;;
15982;SDS011;14442;50.196;8.096;2022-10-31T13:11:16;2.00;;;0.97;;
15982;SDS011;14442;50.196;8.096;2022-10-31T13:13:51;2.43;;;1.23;;
15982;SDS011;14442;50.196;8.096;2022-10-31T13:16:25;4.67;;;1.20;;
15982;SDS011;14442;50.196;8.096;2022-10-31T13:18:57;2.00;;;1.50;;
15982;SDS011;14442;50.196;8.096;2022-10-31T13:21:27;2.93;;;1.30;;
15982;SDS011;14442;50.196;8.096;2022-10-31T13:23:57;1.73;;;1.50;;
15982;SDS011;14442;50.196;8.096;2022-10-31T13:26:31;2.93;;;1.37;;
15982;SDS011;14442;50.196;8.096;2022-10-31T13:29:09;2.57;;;1.50;;
15982;SDS011;14442;50.196;8.096;2022-10-31T13:31:42;2.10;;;1.20;;
15982;SDS011;14442;50.196;8.096;2022-10-31T13:34:12;2.57;;;1.30;;
15982;SDS011;14442;50.196;8.096;2022-10-31T13:36:48;1.77;;;1.10;;
15982;SDS011;14442;50.196;8.096;2022-10-31T13:39:23;2.73;;;1.20;;
15982;SDS011;14442;50.196;8.096;2022-10-31T13:42:03;2.07;;;1.70;;
15982;SDS011;14442;50.196;8.096;2022-10-31T13:44:39;1.43;;;1.33;;
15982;SDS011;14442;50.196;8.096;2022-10-31T13:47:20;1.30;;;1.20;;
15982;SDS011;14442;50.196;8.096;2022-10-31T13:49:51;2.43;;;1.60;;
15982;SDS011;14442;50.196;8.096;2022-10-31T13:52:30;1.57;;;1.30;;
15982;SDS011;14442;50.196;8.096;2022-10-31T13:54:56;1.40;;;0.90;;
15982;SDS011;14442;50.196;8.096;2022-10-31T13:57:26;3.13;;;1.27;;
15982;SDS011;14442;50.196;8.096;2022-10-31T14:00:00;2.47;;;1.33;;
15982;SDS011;14442;50.196;8.096;2022-10-31T14:02:30;1.57;;;1.10;;
15982;SDS011;14442;50.196;8.096;2022-10-31T14:04:59;2.10;;;1.10;;
15982;SDS011;14442;50.196;8.096;2022-10-31T14:07:28;1.53;;;1.37;;
15982;SDS011;14442;50.196;8.096;2022-10-31T14:09:57;5.97;;;1.07;;
15982;SDS011;14442;50.196;8.096;2022-10-31T14:12:29;2.90;;;1.23;;
15982;SDS011;14442;50.196;8.096;2022-10-31T14:14:59;3.63;;;1.30;;
15982;SDS011;14442;50.196;8.096;2022-10-31T14:17:33;4.13;;;1.27;;
15982;SDS011;14442;50.196;8.096;2022-10-31T14:20:22;1.37;;;1.00;;
15982;SDS011;14442;50.196;8.096;2022-10-31T14:23:09;1.03;;;0.93;;
15982;SDS011;14442;50.196;8.096;2022-10-31T14:26:05;1.40;;;1.30;;
15982;SDS011;14442;50.196;8.096;2022-10-31T14:28:47;5.03;;;1.63;;
15982;SDS011;14442;50.196;8.096;2022-10-31T14:31:27;4.93;;;1.63;;
15982;SDS011;14442;50.196;8.096;2022-10-31T14:33:59;6.80;;;1.80;;
15982;SDS011;14442;50.196;8.096;2022-10-31T14:36:29;2.57;;;1.30;;
15982;SDS011;14442;50.196;8.096;2022-10-31T14:39:04;6.10;;;1.37;;
15982;SDS011;14442;50.196;8.096;2022-10-31T14:41:42;5.27;;;1.50;;
15982;SDS011;14442;50.196;8.096;2022-10-31T14:44:34;2.43;;;1.40;;
15982;SDS011;14442;50.196;8.096;2022-10-31T14:47:28;3.37;;;1.33;;
15982;SDS011;14442;50.196;8.096;2022-10-31T14:50:10;1.97;;;1.10;;
15982;SDS011;14442;50.196;8.096;2022-10-31T14:52:49;7.03;;;1.53;;
15982;SDS011;14442;50.196;8.096;2022-10-31T14:55:18;1.60;;;1.50;;
15982;SDS011;14442;50.196;8.096;2022-10-31T14:57:47;1.70;;;1.20;;
15982;SDS011;14442;50.196;8.096;2022-10-31T15:00:18;3.60;;;1.00;;
15982;SDS011;14442;50.196;8.096;2022-10-31T15:02:49;3.27;;;1.33;;
15982;SDS011;14442;50.196;8.096;2022-10-31T15:05:22;3.80;;;1.77;;
15982;SDS011;14442;50.196;8.096;2022-10-31T15:07:52;3.63;;;1.20;;
15982;SDS011;14442;50.196;8.096;2022-10-31T15:10:21;1.90;;;1.03;;
15982;SDS011;14442;50.196;8.096;2022-10-31T15:12:50;2.80;;;1.30;;
15982;SDS011;14442;50.196;8.096;2022-10-31T15:15:18;1.50;;;1.03;;
15982;SDS011;14442;50.196;8.096;2022-10-31T15:17:49;3.63;;;1.47;;